createdAt,value
2023-03-08T00:00:51.122Z,27.50
2023-03-08T00:03:57.919Z,27.50
2023-03-08T00:07:00.249Z,27.40
2023-03-08T00:10:02.434Z,27.40
2023-03-08T00:13:04.816Z,27.40
2023-03-08T00:16:10.501Z,27.40
2023-03-08T00:19:12.823Z,27.40
2023-03-08T00:22:14.790Z,27.30
2023-03-08T00:25:17.154Z,27.40
2023-03-08T00:28:19.147Z,26.70
2023-03-08T00:31:22.031Z,27.00
2023-03-08T00:34:24.161Z,27.00
2023-03-08T00:37:26.421Z,26.80
2023-03-08T00:40:28.377Z,27.10
2023-03-08T00:43:31.422Z,27.30
2023-03-08T00:46:34.767Z,27.40
2023-03-08T00:49:37.091Z,27.30
2023-03-08T00:52:39.653Z,27.20
2023-03-08T00:55:56.113Z,27.40
2023-03-08T00:58:58.154Z,27.20
2023-03-08T01:02:01.122Z,27.40
2023-03-08T01:05:03.894Z,27.40
2023-03-08T01:08:06.325Z,27.40
2023-03-08T01:11:20.471Z,27.30
2023-03-08T01:14:22.713Z,27.40
2023-03-08T01:17:24.754Z,27.40
2023-03-08T01:20:27.048Z,27.30
2023-03-08T01:23:29.961Z,27.40
2023-03-08T01:26:32.364Z,27.50
2023-03-08T01:29:34.392Z,27.40
2023-03-08T01:32:36.703Z,27.50
2023-03-08T01:35:38.719Z,27.40
2023-03-08T01:38:41.993Z,27.40
2023-03-08T01:41:44.021Z,27.50
2023-03-08T01:44:57.088Z,27.30
2023-03-08T01:47:59.046Z,27.30
2023-03-08T01:51:03.023Z,27.30
2023-03-08T01:54:10.978Z,27.10
2023-03-08T01:57:21.107Z,27.30
2023-03-08T02:00:25.187Z,27.10
2023-03-08T02:03:27.429Z,27.30
2023-03-08T02:06:29.772Z,27.50
2023-03-08T02:09:32.186Z,27.40
2023-03-08T02:12:35.615Z,27.40
2023-03-08T02:15:37.847Z,27.40
2023-03-08T02:19:03.237Z,27.50
2023-03-08T02:22:13.149Z,27.30
2023-03-08T02:25:21.491Z,27.40
2023-03-08T02:28:25.660Z,27.40
2023-03-08T02:31:27.636Z,27.50
2023-03-08T02:34:29.979Z,27.50
2023-03-08T02:37:33.305Z,27.40
2023-03-08T02:40:36.841Z,27.30
2023-03-08T02:43:38.833Z,27.30
2023-03-08T02:46:41.500Z,27.20
2023-03-08T02:49:43.467Z,27.00
2023-03-08T02:52:45.869Z,27.00
2023-03-08T02:55:47.868Z,27.00
2023-03-08T02:58:50.148Z,27.00
2023-03-08T03:01:52.559Z,27.00
2023-03-08T03:04:54.831Z,26.90
2023-03-08T03:07:58.609Z,27.00
2023-03-08T03:11:00.964Z,27.10
2023-03-08T03:14:03.392Z,27.20
2023-03-08T03:17:05.785Z,27.00
2023-03-08T03:20:09.451Z,27.10
2023-03-08T03:23:11.721Z,26.90
2023-03-08T03:26:16.765Z,26.90
2023-03-08T03:29:18.994Z,26.80
2023-03-08T03:32:21.023Z,26.70
2023-03-08T03:35:23.286Z,26.60
2023-03-08T03:38:25.513Z,26.60
2023-03-08T03:41:27.783Z,26.60
2023-03-08T03:44:30.999Z,26.70
2023-03-08T03:47:33.239Z,26.50
2023-03-08T03:50:35.266Z,26.60
2023-03-08T03:53:37.698Z,26.40
2023-03-08T03:56:39.717Z,26.50
2023-03-08T03:59:41.928Z,26.30
2023-03-08T04:02:43.941Z,26.30
2023-03-08T04:05:46.244Z,26.40
2023-03-08T04:08:52.248Z,26.00
2023-03-08T04:11:54.650Z,26.30
2023-03-08T04:14:57.836Z,26.40
2023-03-08T04:18:00.262Z,26.30
2023-03-08T04:21:02.277Z,26.60
2023-03-08T04:24:05.021Z,26.60
2023-03-08T04:27:06.973Z,26.50
2023-03-08T04:30:10.054Z,26.80
2023-03-08T04:33:12.061Z,26.60
2023-03-08T04:36:17.720Z,26.70
2023-03-08T04:39:19.811Z,26.70
2023-03-08T04:42:22.397Z,26.80
2023-03-08T04:45:24.383Z,26.90
2023-03-08T04:48:27.066Z,26.90
2023-03-08T04:51:29.091Z,27.00
2023-03-08T04:54:31.526Z,26.90
2023-03-08T04:57:35.142Z,26.90
2023-03-08T05:00:37.489Z,26.80
2023-03-08T05:03:39.800Z,26.90
2023-03-08T05:06:42.085Z,26.70
2023-03-08T05:09:44.119Z,26.10
2023-03-08T05:12:46.358Z,26.20
2023-03-08T05:15:48.329Z,26.40
2023-03-08T05:18:50.629Z,26.60
2023-03-08T05:21:52.676Z,26.30
2023-03-08T05:24:54.923Z,26.30
2023-03-08T05:27:56.871Z,26.50
2023-03-08T05:31:11.764Z,26.60
2023-03-08T05:34:13.810Z,26.70
2023-03-08T05:37:16.327Z,26.80
2023-03-08T05:40:18.630Z,26.60
2023-03-08T05:43:22.020Z,26.90
2023-03-08T05:46:24.052Z,27.00
2023-03-08T05:49:26.336Z,27.10
2023-03-08T05:52:32.792Z,27.10
2023-03-08T05:55:36.407Z,27.00
2023-03-08T05:58:38.476Z,27.20
2023-03-08T06:01:40.893Z,27.10
2023-03-08T06:04:42.934Z,27.10
2023-03-08T06:07:45.224Z,27.30
2023-03-08T06:10:47.186Z,27.10
2023-03-08T06:13:49.614Z,27.30
2023-03-08T06:16:51.625Z,27.00
2023-03-08T06:19:53.900Z,27.20
2023-03-08T06:22:55.872Z,27.20
2023-03-08T06:26:07.741Z,27.10
2023-03-08T06:29:10.342Z,27.40
2023-03-08T06:32:12.766Z,27.50
2023-03-08T06:35:14.931Z,27.40
2023-03-08T06:38:17.227Z,27.40
2023-03-08T06:41:20.748Z,27.00
2023-03-08T06:44:23.453Z,26.90
2023-03-08T06:47:25.495Z,26.80
2023-03-08T06:50:27.807Z,26.80
2023-03-08T06:53:29.799Z,26.80
2023-03-08T06:56:32.115Z,26.80
2023-03-08T06:59:34.141Z,27.30
2023-03-08T07:02:36.429Z,27.40
2023-03-08T07:05:38.562Z,27.30
2023-03-08T07:08:41.422Z,27.70
2023-03-08T07:11:43.467Z,27.80
2023-03-08T07:14:45.703Z,27.70
2023-03-08T07:17:49.048Z,27.50
2023-03-08T07:20:56.728Z,27.20
2023-03-08T07:23:58.679Z,27.20
2023-03-08T07:27:00.950Z,27.00
2023-03-08T07:30:02.997Z,27.40
2023-03-08T07:33:05.342Z,27.80
2023-03-08T07:36:07.723Z,27.90
2023-03-08T07:39:10.012Z,27.70
2023-03-08T07:42:12.354Z,28.20
2023-03-08T07:45:15.228Z,28.40
2023-03-08T07:48:17.232Z,28.10
2023-03-08T07:51:19.667Z,28.60
2023-03-08T07:54:22.666Z,28.80
2023-03-08T07:57:26.055Z,28.40
2023-03-08T08:00:28.252Z,28.50
2023-03-08T08:03:31.365Z,28.70
2023-03-08T08:06:36.086Z,29.00
2023-03-08T08:09:38.788Z,28.80
2023-03-08T08:12:40.955Z,28.90
2023-03-08T08:15:43.530Z,29.00
2023-03-08T08:18:46.898Z,29.20
2023-03-08T08:21:49.280Z,29.10
2023-03-08T08:24:51.395Z,29.00
2023-03-08T08:27:53.992Z,29.30
2023-03-08T08:30:59.461Z,29.30
2023-03-08T08:34:04.035Z,29.30
2023-03-08T08:37:09.364Z,29.40
2023-03-08T08:40:12.300Z,29.50
2023-03-08T08:43:14.846Z,29.30
2023-03-08T08:46:18.038Z,29.50
2023-03-08T08:49:21.280Z,29.60
2023-03-08T08:52:23.644Z,29.60
2023-03-08T08:55:28.859Z,29.60
2023-03-08T08:58:31.160Z,29.00
2023-03-08T09:01:34.448Z,29.00
2023-03-08T09:04:36.920Z,28.50
2023-03-08T09:07:39.361Z,28.80
2023-03-08T09:10:42.005Z,28.60
2023-03-08T09:13:44.376Z,29.00
2023-03-08T09:16:46.948Z,29.30
2023-03-08T09:19:49.095Z,29.20
2023-03-08T09:22:51.553Z,29.10
2023-03-08T09:26:01.396Z,28.80
2023-03-08T09:29:10.985Z,28.40
2023-03-08T09:32:13.060Z,28.80
2023-03-08T09:35:15.617Z,29.20
2023-03-08T09:38:17.602Z,29.30
2023-03-08T09:41:21.857Z,29.50
2023-03-08T09:44:57.346Z,29.50
2023-03-08T09:48:21.559Z,29.50
2023-03-08T09:51:35.829Z,29.40
2023-03-08T09:54:39.375Z,29.70
2023-03-08T09:57:49.918Z,29.90
2023-03-08T10:00:53.333Z,30.00
2023-03-08T10:04:29.920Z,29.70
2023-03-08T10:07:37.833Z,29.80
2023-03-08T10:10:43.483Z,29.40
2023-03-08T10:13:52.264Z,29.00
2023-03-08T10:17:00.552Z,29.00
2023-03-08T10:20:16.909Z,29.00
2023-03-08T10:23:21.311Z,28.50
2023-03-08T10:26:25.873Z,28.60
2023-03-08T10:29:28.049Z,29.20
2023-03-08T10:32:30.492Z,29.40
2023-03-08T10:35:59.509Z,29.70
2023-03-08T10:39:11.363Z,29.30
2023-03-08T10:42:17.204Z,28.80
2023-03-08T10:45:22.385Z,28.90
2023-03-08T10:48:24.352Z,29.10
2023-03-08T10:51:28.777Z,28.30
2023-03-08T10:54:31.010Z,28.80
2023-03-08T10:57:34.350Z,28.40
2023-03-08T11:00:44.336Z,28.30
2023-03-08T11:03:47.025Z,28.70
2023-03-08T11:06:49.109Z,28.20
2023-03-08T11:09:52.133Z,28.90
2023-03-08T11:13:21.102Z,29.40
2023-03-08T11:16:42.249Z,29.50
2023-03-08T11:20:02.820Z,29.40
2023-03-08T11:23:30.472Z,29.70
2023-03-08T11:26:52.044Z,29.40
2023-03-08T11:30:25.622Z,29.70
2023-03-08T11:33:42.874Z,29.60
2023-03-08T11:36:51.560Z,29.60
2023-03-08T11:40:22.107Z,30.00
2023-03-08T11:43:40.610Z,29.80
2023-03-08T11:46:51.972Z,30.20
2023-03-08T11:50:14.723Z,30.50
2023-03-08T11:53:34.040Z,30.20
2023-03-08T11:56:45.106Z,30.10
2023-03-08T12:00:00.871Z,29.70
2023-03-08T12:03:15.297Z,30.30
2023-03-08T12:06:29.384Z,30.70
2023-03-08T12:10:10.971Z,30.80
2023-03-08T12:13:38.799Z,30.90
2023-03-08T12:17:05.226Z,31.00
2023-03-08T12:20:14.140Z,30.70
2023-03-08T12:23:33.722Z,30.50
2023-03-08T12:26:44.528Z,30.10
2023-03-08T12:29:56.311Z,30.10
2023-03-08T12:33:02.113Z,29.90
2023-03-08T12:36:07.089Z,30.00
2023-03-08T12:39:26.719Z,30.00
2023-03-08T12:42:38.658Z,29.40
2023-03-08T12:45:44.113Z,29.60
2023-03-08T12:48:46.469Z,29.70
2023-03-08T12:52:07.178Z,29.50
2023-03-08T12:55:21.798Z,29.60
2023-03-08T12:58:23.934Z,29.50
2023-03-08T13:01:33.581Z,29.80
2023-03-08T13:04:42.358Z,29.40
2023-03-08T13:08:23.401Z,29.30
2023-03-08T13:11:37.636Z,29.70
2023-03-08T13:15:01.632Z,29.60
2023-03-08T13:18:15.877Z,29.50
2023-03-08T13:21:42.805Z,29.80
2023-03-08T13:24:56.412Z,29.40
2023-03-08T13:28:30.414Z,29.80
2023-03-08T13:31:40.634Z,29.90
2023-03-08T13:34:45.520Z,30.30
2023-03-08T13:37:58.920Z,30.10
2023-03-08T13:41:01.980Z,30.20
2023-03-08T13:44:29.680Z,30.40
2023-03-08T13:47:35.509Z,30.00
2023-03-08T13:50:43.637Z,30.30
2023-03-08T13:53:46.755Z,30.00
2023-03-08T13:56:53.587Z,29.70
2023-03-08T13:59:59.127Z,29.80
2023-03-08T14:03:03.724Z,30.10
2023-03-08T14:06:24.189Z,29.90
2023-03-08T14:09:27.500Z,29.80
2023-03-08T14:12:33.294Z,30.20
2023-03-08T14:15:38.901Z,30.40
2023-03-08T14:18:43.637Z,30.50
2023-03-08T14:21:58.888Z,30.40
2023-03-08T14:25:02.556Z,30.50
2023-03-08T14:28:04.648Z,30.60
2023-03-08T14:31:28.000Z,30.70
2023-03-08T14:34:41.358Z,30.80
2023-03-08T14:37:46.674Z,30.40
2023-03-08T14:40:50.397Z,30.10
2023-03-08T14:43:52.959Z,30.00
2023-03-08T14:46:58.726Z,30.00
2023-03-08T14:50:08.833Z,29.50
2023-03-08T14:53:31.886Z,29.70
2023-03-08T14:56:34.956Z,29.80
2023-03-08T14:59:40.978Z,29.40
2023-03-08T15:02:43.903Z,29.10
2023-03-08T15:05:46.629Z,29.10
2023-03-08T15:08:49.225Z,29.10
2023-03-08T15:11:52.862Z,29.10
2023-03-08T15:14:55.389Z,29.00
2023-03-08T15:17:57.521Z,29.00
2023-03-08T15:21:00.374Z,28.40
2023-03-08T15:24:02.881Z,28.60
2023-03-08T15:27:05.295Z,28.60
2023-03-08T15:30:14.669Z,28.50
2023-03-08T15:33:17.178Z,28.60
2023-03-08T15:36:19.935Z,28.70
2023-03-08T15:39:22.809Z,28.70
2023-03-08T15:42:24.982Z,28.90
2023-03-08T15:45:28.838Z,28.90
2023-03-08T15:48:30.861Z,28.80
2023-03-08T15:51:36.353Z,29.00
2023-03-08T15:54:40.408Z,28.90
2023-03-08T15:57:43.034Z,28.80
2023-03-08T16:00:45.290Z,28.90
2023-03-08T16:03:57.141Z,28.70
2023-03-08T16:06:59.140Z,28.80
2023-03-08T16:10:02.042Z,28.80
2023-03-08T16:13:04.135Z,28.80
2023-03-08T16:16:07.561Z,28.80
2023-03-08T16:19:09.750Z,28.80
2023-03-08T16:22:12.205Z,28.80
2023-03-08T16:25:15.246Z,28.80
2023-03-08T16:28:17.616Z,28.80
2023-03-08T16:31:21.874Z,28.70
2023-03-08T16:34:25.217Z,28.60
2023-03-08T16:37:27.541Z,28.60
2023-03-08T16:40:31.259Z,28.60
2023-03-08T16:43:45.742Z,28.30
2023-03-08T16:46:49.430Z,28.30
2023-03-08T16:49:51.489Z,28.40
2023-03-08T16:52:54.909Z,28.10
2023-03-08T16:55:57.021Z,27.90
2023-03-08T16:59:00.912Z,27.90
2023-03-08T17:02:02.954Z,27.50
2023-03-08T17:05:05.864Z,27.20
2023-03-08T17:08:08.129Z,27.40
2023-03-08T17:11:26.533Z,27.60
2023-03-08T17:14:28.686Z,27.60
2023-03-08T17:17:31.077Z,27.60
2023-03-08T17:20:33.060Z,27.60
2023-03-08T17:23:35.836Z,27.70
2023-03-08T17:26:42.590Z,27.70
2023-03-08T17:29:44.948Z,27.60
2023-03-08T17:32:46.982Z,27.40
2023-03-08T17:35:56.359Z,27.50
2023-03-08T17:38:58.556Z,27.40
2023-03-08T17:42:01.011Z,27.60
2023-03-08T17:45:06.443Z,27.30
2023-03-08T17:48:10.919Z,27.40
2023-03-08T17:51:18.633Z,27.40
2023-03-08T17:54:21.212Z,27.50
2023-03-08T17:57:23.652Z,27.10
2023-03-08T18:00:26.088Z,27.30
2023-03-08T18:03:28.045Z,27.20
2023-03-08T18:06:39.148Z,27.30
2023-03-08T18:09:41.161Z,27.40
2023-03-08T18:12:43.535Z,27.20
2023-03-08T18:15:45.672Z,27.20
2023-03-08T18:18:49.855Z,27.10
2023-03-08T18:21:54.479Z,27.00
2023-03-08T18:24:56.762Z,27.00
2023-03-08T18:27:58.887Z,26.90
2023-03-08T18:31:06.894Z,26.80
2023-03-08T18:34:09.900Z,26.90
2023-03-08T18:37:12.145Z,27.10
2023-03-08T18:40:14.968Z,27.00
2023-03-08T18:43:17.232Z,27.00
2023-03-08T18:46:19.371Z,26.70
2023-03-08T18:49:21.962Z,26.60
2023-03-08T18:52:24.151Z,26.40
2023-03-08T18:55:26.388Z,26.40
2023-03-08T18:58:29.005Z,26.40
2023-03-08T19:01:32.784Z,26.50
2023-03-08T19:04:42.469Z,26.60
2023-03-08T19:07:46.701Z,26.00
2023-03-08T19:10:49.090Z,26.30
2023-03-08T19:13:52.692Z,26.40
2023-03-08T19:16:55.018Z,26.50
2023-03-08T19:19:57.355Z,26.80
2023-03-08T19:22:59.468Z,26.80
2023-03-08T19:26:20.333Z,26.90
2023-03-08T19:29:25.035Z,26.60
2023-03-08T19:32:27.576Z,26.00
2023-03-08T19:35:29.701Z,25.90
2023-03-08T19:38:31.962Z,25.90
2023-03-08T19:41:34.345Z,26.10
2023-03-08T19:44:36.796Z,26.10
2023-03-08T19:47:39.039Z,25.90
2023-03-08T19:50:45.504Z,25.80
2023-03-08T19:53:47.499Z,25.60
2023-03-08T19:56:50.352Z,24.80
2023-03-08T19:59:52.370Z,24.70
2023-03-08T20:02:56.478Z,25.40
2023-03-08T20:05:58.641Z,25.40
2023-03-08T20:09:02.423Z,25.50
2023-03-08T20:12:04.431Z,25.50
2023-03-08T20:15:07.242Z,25.50
2023-03-08T20:18:09.225Z,25.50
2023-03-08T20:21:11.533Z,26.00
2023-03-08T20:24:14.487Z,25.20
2023-03-08T20:27:16.894Z,25.60
2023-03-08T20:30:19.041Z,25.70
2023-03-08T20:33:21.320Z,25.40
2023-03-08T20:36:23.790Z,25.10
2023-03-08T20:39:26.138Z,25.00
2023-03-08T20:42:28.094Z,25.60
2023-03-08T20:45:30.498Z,25.60
2023-03-08T20:48:37.365Z,26.00
2023-03-08T20:51:39.640Z,26.40
2023-03-08T20:54:42.397Z,26.30
2023-03-08T20:57:44.765Z,26.40
2023-03-08T21:00:46.862Z,26.30
2023-03-08T21:03:49.362Z,25.60
2023-03-08T21:06:51.420Z,25.70
2023-03-08T21:09:53.805Z,25.60
2023-03-08T21:12:55.867Z,26.10
2023-03-08T21:16:12.211Z,25.60
2023-03-08T21:19:14.467Z,25.80
2023-03-08T21:22:16.762Z,25.70
2023-03-08T21:25:18.732Z,26.20
2023-03-08T21:28:24.075Z,26.30
2023-03-08T21:31:26.436Z,25.70
2023-03-08T21:34:29.084Z,25.80
2023-03-08T21:37:31.153Z,26.10
2023-03-08T21:40:41.832Z,26.00
2023-03-08T21:43:43.868Z,25.00
2023-03-08T21:46:46.847Z,24.10
2023-03-08T21:49:48.886Z,24.90
2023-03-08T21:52:51.124Z,25.20
2023-03-08T21:55:53.168Z,25.30
2023-03-08T21:58:56.057Z,25.40
2023-03-08T22:01:58.880Z,25.10
2023-03-08T22:05:03.841Z,25.60
2023-03-08T22:08:05.824Z,25.80
2023-03-08T22:11:08.383Z,25.60
2023-03-08T22:14:11.677Z,25.40
2023-03-08T22:17:13.974Z,25.60
2023-03-08T22:20:16.116Z,25.40
2023-03-08T22:23:18.418Z,25.80
2023-03-08T22:26:21.289Z,25.80
2023-03-08T22:29:23.552Z,25.90
2023-03-08T22:32:25.696Z,26.10
2023-03-08T22:35:29.193Z,25.50
2023-03-08T22:38:31.374Z,25.50
2023-03-08T22:41:33.635Z,25.60
2023-03-08T22:44:35.840Z,25.50
2023-03-08T22:47:38.104Z,24.90
2023-03-08T22:50:40.515Z,24.90
2023-03-08T22:53:43.230Z,24.90
2023-03-08T22:56:45.631Z,25.50
2023-03-08T22:59:47.891Z,25.80
2023-03-08T23:02:49.984Z,25.10
2023-03-08T23:05:52.936Z,24.60
2023-03-08T23:09:00.826Z,24.60
2023-03-08T23:12:05.987Z,24.80
2023-03-08T23:15:09.243Z,24.90
2023-03-08T23:18:11.504Z,25.10
2023-03-08T23:21:15.598Z,24.70
2023-03-08T23:24:18.259Z,24.90
2023-03-08T23:27:20.644Z,24.40
2023-03-08T23:30:23.081Z,25.20
2023-03-08T23:33:25.059Z,24.60
2023-03-08T23:36:29.376Z,24.70
2023-03-08T23:39:33.928Z,24.90
2023-03-08T23:42:36.289Z,25.50
2023-03-08T23:45:40.306Z,25.30
2023-03-08T23:48:43.452Z,25.30
2023-03-08T23:51:46.221Z,25.30
2023-03-08T23:54:48.592Z,25.40
2023-03-08T23:57:50.696Z,24.60
